createdAt,value
2023-04-11T00:00:15.481Z,284.90
2023-04-11T00:02:43.025Z,292.80
2023-04-11T00:05:10.770Z,296.58
2023-04-11T00:07:38.158Z,289.77
2023-04-11T00:10:07.316Z,280.33
2023-04-11T00:12:34.672Z,291.60
2023-04-11T00:15:02.542Z,289.10
2023-04-11T00:17:31.683Z,284.73
2023-04-11T00:20:01.827Z,288.38
2023-04-11T00:22:30.702Z,276.23
2023-04-11T00:24:58.088Z,277.98
2023-04-11T00:27:25.108Z,279.67
2023-04-11T00:29:53.028Z,286.58
2023-04-11T00:32:21.464Z,286.83
2023-04-11T00:34:48.813Z,278.80
2023-04-11T00:37:17.847Z,275.20
2023-04-11T00:39:45.341Z,274.27
2023-04-11T00:42:12.768Z,280.80
2023-04-11T00:44:40.419Z,286.80
2023-04-11T00:47:09.131Z,292.70
2023-04-11T00:49:37.087Z,294.30
2023-04-11T00:52:05.124Z,294.38
2023-04-11T00:54:32.800Z,286.42
2023-04-11T00:57:04.465Z,293.70
2023-04-11T00:59:33.192Z,275.17
2023-04-11T01:02:01.828Z,278.52
2023-04-11T01:04:32.911Z,275.17
2023-04-11T01:07:06.373Z,294.27
2023-04-11T01:09:35.500Z,268.13
2023-04-11T01:12:04.056Z,281.27
2023-04-11T01:14:31.186Z,281.13
2023-04-11T01:17:02.131Z,272.08
2023-04-11T01:19:30.024Z,263.25
2023-04-11T01:21:58.635Z,263.60
2023-04-11T01:24:26.040Z,273.92
2023-04-11T01:26:53.530Z,269.02
2023-04-11T01:29:20.737Z,266.33
2023-04-11T01:31:48.129Z,261.20
2023-04-11T01:34:17.176Z,265.77
2023-04-11T01:36:44.869Z,253.40
2023-04-11T01:39:12.339Z,271.00
2023-04-11T01:41:41.949Z,262.15
2023-04-11T01:44:09.232Z,263.95
2023-04-11T01:46:36.807Z,249.95
2023-04-11T01:49:04.001Z,256.88
2023-04-11T01:51:31.037Z,243.82
2023-04-11T01:53:58.414Z,258.67
2023-04-11T01:56:25.488Z,249.82
2023-04-11T01:58:52.611Z,256.17
2023-04-11T02:01:20.724Z,251.73
2023-04-11T02:03:48.214Z,258.75
2023-04-11T02:06:16.860Z,244.48
2023-04-11T02:08:44.593Z,257.85
2023-04-11T02:11:12.035Z,241.20
2023-04-11T02:13:39.403Z,255.15
2023-04-11T02:16:18.348Z,249.90
2023-04-11T02:18:46.390Z,248.63
2023-04-11T02:21:13.477Z,248.57
2023-04-11T02:23:40.529Z,236.98
2023-04-11T02:26:07.923Z,262.55
2023-04-11T02:28:36.808Z,256.92
2023-04-11T02:31:04.050Z,246.02
2023-04-11T02:33:31.260Z,255.13
2023-04-11T02:35:58.544Z,245.98
2023-04-11T02:38:25.807Z,248.50
2023-04-11T02:40:52.831Z,255.18
2023-04-11T02:43:20.209Z,244.57
2023-04-11T02:45:47.232Z,239.52
2023-04-11T02:48:14.636Z,248.73
2023-04-11T02:50:42.037Z,248.60
2023-04-11T02:53:09.094Z,247.35
2023-04-11T02:55:36.227Z,230.87
2023-04-11T02:58:03.302Z,250.03
2023-04-11T03:00:30.253Z,234.13
2023-04-11T03:02:59.174Z,219.07
2023-04-11T03:05:26.713Z,222.60
2023-04-11T03:07:54.263Z,239.30
2023-04-11T03:10:22.042Z,236.57
2023-04-11T03:12:49.685Z,227.32
2023-04-11T03:15:17.926Z,222.63
2023-04-11T03:17:45.894Z,218.40
2023-04-11T03:20:14.086Z,238.17
2023-04-11T03:22:41.813Z,216.90
2023-04-11T03:25:09.526Z,228.00
2023-04-11T03:27:37.128Z,210.45
2023-04-11T03:30:05.231Z,220.50
2023-04-11T03:32:32.596Z,218.30
2023-04-11T03:35:01.983Z,215.17
2023-04-11T03:37:28.913Z,221.50
2023-04-11T03:39:55.929Z,222.25
2023-04-11T03:42:23.311Z,213.73
2023-04-11T03:44:50.926Z,212.80
2023-04-11T03:47:18.579Z,242.83
2023-04-11T03:49:46.238Z,207.95
2023-04-11T03:52:15.304Z,203.47
2023-04-11T03:54:42.645Z,199.70
2023-04-11T03:57:10.841Z,211.55
2023-04-11T03:59:38.204Z,206.57
2023-04-11T04:02:06.291Z,214.57
2023-04-11T04:04:33.871Z,228.33
2023-04-11T04:07:01.977Z,219.10
2023-04-11T04:09:29.499Z,220.77
2023-04-11T04:11:57.728Z,209.33
2023-04-11T04:14:24.876Z,213.90
2023-04-11T04:16:52.006Z,220.90
2023-04-11T04:19:19.091Z,206.18
2023-04-11T04:21:46.999Z,214.43
2023-04-11T04:24:14.284Z,203.37
2023-04-11T04:26:41.384Z,210.67
2023-04-11T04:29:10.323Z,208.70
2023-04-11T04:31:38.364Z,206.10
2023-04-11T04:34:10.715Z,213.07
2023-04-11T04:36:49.403Z,202.57
2023-04-11T04:39:20.447Z,204.65
2023-04-11T04:41:49.126Z,200.97
2023-04-11T04:44:16.642Z,214.60
2023-04-11T04:46:44.373Z,201.70
2023-04-11T04:49:11.371Z,213.30
2023-04-11T04:51:40.496Z,212.03
2023-04-11T04:54:07.555Z,208.93
2023-04-11T04:56:34.661Z,205.17
2023-04-11T04:59:01.756Z,197.67
2023-04-11T05:01:28.820Z,198.60
2023-04-11T05:04:00.031Z,207.80
2023-04-11T05:06:32.032Z,204.40
2023-04-11T05:09:01.574Z,194.18
2023-04-11T05:11:29.528Z,204.53
2023-04-11T05:16:42.303Z,203.13
2023-04-11T05:19:09.919Z,201.70
2023-04-11T05:21:38.623Z,207.37
2023-04-11T05:24:06.002Z,196.03
2023-04-11T05:26:33.103Z,201.67
2023-04-11T05:29:01.413Z,196.47
2023-04-11T05:31:31.776Z,205.37
2023-04-11T05:33:59.062Z,202.27
2023-04-11T05:36:26.376Z,202.87
2023-04-11T05:38:53.454Z,203.13
2023-04-11T05:41:20.467Z,181.45
2023-04-11T05:43:47.457Z,200.50
2023-04-11T05:46:14.582Z,211.77
2023-04-11T05:48:41.706Z,217.90
2023-04-11T05:51:08.896Z,199.23
2023-04-11T05:53:36.978Z,184.15
2023-04-11T05:56:04.486Z,179.02
2023-04-11T05:58:31.612Z,190.73
2023-04-11T06:00:59.989Z,194.23
2023-04-11T06:03:27.533Z,183.33
2023-04-11T06:05:55.201Z,294.07
2023-04-11T06:08:22.424Z,188.25
2023-04-11T06:10:49.721Z,236.63
2023-04-11T06:13:16.762Z,208.68
2023-04-11T06:15:44.202Z,191.68
2023-04-11T06:18:12.648Z,176.47
2023-04-11T06:20:39.601Z,194.10
2023-04-11T06:23:06.646Z,196.27
2023-04-11T06:25:33.722Z,182.80
2023-04-11T06:28:00.802Z,188.50
2023-04-11T06:30:28.353Z,196.25
2023-04-11T06:32:57.074Z,180.18
2023-04-11T06:35:27.269Z,180.57
2023-04-11T06:37:54.288Z,186.67
2023-04-11T06:40:21.298Z,176.83
2023-04-11T06:42:48.602Z,197.07
2023-04-11T06:45:15.740Z,190.35
2023-04-11T06:47:42.706Z,185.73
2023-04-11T06:50:10.864Z,188.70
2023-04-11T06:52:38.095Z,189.57
2023-04-11T06:55:07.342Z,183.18
2023-04-11T06:57:34.523Z,194.35
2023-04-11T07:00:02.152Z,186.93
2023-04-11T07:02:29.909Z,195.37
2023-04-11T07:04:57.036Z,201.38
2023-04-11T07:07:24.232Z,195.40
2023-04-11T07:09:51.307Z,195.40
2023-04-11T07:12:18.390Z,205.00
2023-04-11T07:14:45.785Z,193.47
2023-04-11T07:17:12.732Z,201.80
2023-04-11T07:19:39.724Z,204.20
2023-04-11T07:22:06.680Z,209.37
2023-04-11T07:24:33.672Z,194.93
2023-04-11T07:27:02.014Z,200.48
2023-04-11T07:29:29.210Z,190.82
2023-04-11T07:31:56.233Z,198.10
2023-04-11T07:34:23.200Z,192.40
2023-04-11T07:36:50.272Z,218.17
2023-04-11T07:39:17.362Z,191.25
2023-04-11T07:41:44.976Z,205.80
2023-04-11T07:44:11.976Z,252.77
2023-04-11T07:46:40.381Z,206.50
2023-04-11T07:49:07.838Z,200.37
2023-04-11T07:51:35.448Z,210.67
2023-04-11T07:54:02.517Z,214.37
2023-04-11T07:56:29.596Z,204.10
2023-04-11T07:58:58.583Z,213.35
2023-04-11T08:01:27.034Z,217.27
2023-04-11T08:03:56.036Z,236.20
2023-04-11T08:06:23.645Z,226.32
2023-04-11T08:08:51.403Z,227.00
2023-04-11T08:11:18.404Z,210.43
2023-04-11T08:13:45.443Z,229.23
2023-04-11T08:16:15.250Z,228.15
2023-04-11T08:18:42.806Z,240.30
2023-04-11T08:21:12.642Z,240.93
2023-04-11T08:23:42.301Z,243.57
2023-04-11T08:26:09.974Z,244.05
2023-04-11T08:28:37.036Z,240.85
2023-04-11T08:31:05.717Z,233.57
2023-04-11T08:33:33.485Z,237.70
2023-04-11T08:36:00.638Z,256.83
2023-04-11T08:38:27.873Z,253.88
2023-04-11T08:40:55.392Z,258.95
2023-04-11T08:43:22.807Z,266.10
2023-04-11T08:45:49.982Z,266.15
2023-04-11T08:48:17.075Z,266.90
2023-04-11T08:50:44.929Z,268.05
2023-04-11T08:53:12.425Z,260.60
2023-04-11T08:55:48.893Z,281.50
2023-04-11T08:58:16.268Z,266.02
2023-04-11T09:00:44.199Z,291.42
2023-04-11T09:03:15.249Z,304.52
2023-04-11T09:05:47.103Z,306.17
2023-04-11T09:08:16.625Z,286.10
2023-04-11T09:10:45.667Z,277.52
2023-04-11T09:13:25.365Z,287.17
2023-04-11T09:16:07.620Z,284.48
2023-04-11T09:18:37.550Z,288.13
2023-04-11T09:21:08.265Z,281.35
2023-04-11T09:23:36.450Z,282.65
2023-04-11T09:26:07.047Z,295.50
2023-04-11T09:28:50.739Z,283.20
2023-04-11T09:31:17.701Z,309.92
2023-04-11T09:33:56.534Z,326.70
2023-04-11T09:36:27.298Z,331.60
2023-04-11T09:38:54.484Z,319.67
2023-04-11T09:41:33.970Z,328.33
2023-04-11T09:44:01.973Z,308.50
2023-04-11T09:46:29.266Z,343.25
2023-04-11T09:48:57.017Z,338.95
2023-04-11T09:53:56.225Z,352.30
2023-04-11T09:56:26.810Z,359.17
2023-04-11T09:58:57.614Z,351.75
2023-04-11T10:01:25.572Z,342.63
2023-04-11T10:03:54.276Z,397.98
2023-04-11T10:06:41.782Z,398.42
2023-04-11T10:09:13.517Z,384.55
2023-04-11T10:11:45.071Z,390.20
2023-04-11T10:14:37.376Z,420.75
2023-04-11T10:17:23.925Z,439.00
2023-04-11T10:20:00.868Z,433.48
2023-04-11T10:22:49.193Z,461.65
2023-04-11T10:25:18.622Z,425.33
2023-04-11T10:28:01.405Z,434.52
2023-04-11T10:31:14.040Z,431.77
2023-04-11T10:34:21.775Z,435.73
2023-04-11T10:37:08.308Z,420.90
2023-04-11T10:39:53.452Z,467.85
2023-04-11T10:42:49.257Z,445.83
2023-04-11T10:45:33.377Z,452.33
2023-04-11T10:48:13.038Z,436.02
2023-04-11T10:50:45.091Z,441.55
2023-04-11T10:53:37.093Z,419.88
2023-04-11T10:56:07.574Z,421.98
2023-04-11T10:58:37.945Z,408.90
2023-04-11T11:01:31.242Z,421.60
2023-04-11T11:04:04.975Z,394.85
2023-04-11T11:06:40.122Z,410.38
2023-04-11T11:09:23.735Z,408.67
2023-04-11T11:12:15.414Z,408.25
2023-04-11T11:14:47.472Z,407.23
2023-04-11T11:17:16.568Z,420.02
2023-04-11T11:19:45.166Z,421.80
2023-04-11T11:22:25.784Z,451.00
2023-04-11T11:24:53.378Z,460.55
2023-04-11T11:27:25.575Z,448.67
2023-04-11T11:29:53.270Z,466.13
2023-04-11T11:32:28.519Z,495.73
2023-04-11T11:34:57.924Z,464.23
2023-04-11T11:37:25.441Z,470.88
2023-04-11T11:39:53.033Z,0.10
2023-04-11T11:42:20.602Z,0.10
2023-04-11T11:44:48.026Z,0.10
2023-04-11T11:47:15.837Z,0.00
2023-04-11T11:49:55.620Z,0.00
2023-04-11T11:52:40.672Z,0.10
2023-04-11T11:55:19.984Z,0.10
2023-04-11T11:57:49.080Z,0.00
2023-04-11T12:00:26.043Z,0.10
2023-04-11T12:02:55.293Z,0.08
2023-04-11T12:05:25.430Z,0.10
2023-04-11T12:07:58.601Z,0.00
2023-04-11T12:10:42.351Z,0.10
2023-04-11T12:13:41.974Z,0.10
2023-04-11T12:16:09.494Z,0.10
2023-04-11T12:18:42.166Z,0.10
2023-04-11T12:21:09.608Z,0.00
2023-04-11T12:23:37.007Z,0.00
2023-04-11T12:26:04.454Z,0.00
2023-04-11T12:28:32.743Z,0.00
2023-04-11T12:31:00.177Z,0.00
2023-04-11T12:33:27.593Z,0.10
2023-04-11T12:35:55.011Z,0.10
2023-04-11T12:38:22.756Z,0.00
2023-04-11T12:43:21.297Z,0.10
2023-04-11T12:45:48.662Z,0.10
2023-04-11T12:48:16.143Z,0.00
2023-04-11T12:50:43.526Z,0.00
2023-04-11T12:53:10.998Z,0.10
2023-04-11T12:55:38.642Z,0.10
2023-04-11T12:58:08.112Z,0.10
2023-04-11T13:00:35.759Z,0.10
2023-04-11T13:03:04.665Z,0.30
2023-04-11T13:05:32.638Z,0.10
2023-04-11T13:07:59.959Z,0.00
2023-04-11T13:10:27.266Z,0.10
2023-04-11T13:12:58.685Z,0.10
2023-04-11T13:15:28.004Z,0.28
2023-04-11T13:17:55.402Z,0.10
2023-04-11T13:20:22.944Z,0.10
2023-04-11T13:22:50.560Z,0.00
2023-04-11T13:25:18.297Z,0.00
2023-04-11T13:27:45.647Z,0.00
2023-04-11T13:30:13.531Z,0.10
2023-04-11T13:32:41.200Z,0.10
2023-04-11T13:35:08.942Z,0.40
2023-04-11T13:37:36.402Z,0.00
2023-04-11T13:40:06.862Z,0.10
2023-04-11T13:42:34.556Z,0.00
2023-04-11T13:45:01.676Z,0.00
2023-04-11T13:47:29.258Z,0.00
2023-04-11T13:49:56.679Z,0.00
2023-04-11T13:52:24.108Z,0.00
2023-04-11T13:54:51.728Z,0.00
2023-04-11T13:57:19.195Z,0.10
2023-04-11T13:59:46.573Z,0.00
2023-04-11T14:02:13.981Z,0.00
2023-04-11T14:04:42.004Z,0.00
2023-04-11T14:07:09.524Z,0.00
2023-04-11T14:09:37.031Z,0.00
2023-04-11T14:12:04.467Z,0.00
2023-04-11T14:14:32.037Z,0.10
2023-04-11T14:16:59.579Z,0.00
2023-04-11T14:19:27.004Z,0.00
2023-04-11T14:21:54.470Z,0.00
2023-04-11T14:24:22.486Z,0.00
2023-04-11T14:26:50.461Z,0.10
2023-04-11T14:29:19.424Z,0.00
2023-04-11T14:31:47.849Z,0.00
2023-04-11T14:34:15.505Z,0.40
2023-04-11T14:36:42.948Z,0.10
2023-04-11T14:39:10.570Z,0.00
2023-04-11T14:41:38.006Z,0.00
2023-04-11T14:44:05.761Z,0.00
2023-04-11T14:46:33.744Z,0.10
2023-04-11T14:49:02.047Z,0.10
2023-04-11T14:51:29.844Z,0.10
2023-04-11T14:53:57.553Z,0.10
2023-04-11T14:56:26.547Z,0.00
2023-04-11T14:58:54.902Z,0.00
2023-04-11T15:01:22.787Z,0.20
2023-04-11T15:03:50.783Z,0.00
2023-04-11T15:06:18.474Z,0.00
2023-04-11T15:08:45.917Z,0.00
2023-04-11T15:11:13.441Z,0.00
2023-04-11T15:13:40.883Z,0.00
2023-04-11T15:16:08.576Z,0.10
2023-04-11T15:18:36.175Z,0.10
2023-04-11T15:21:03.770Z,0.10
2023-04-11T15:23:31.716Z,0.10
2023-04-11T15:26:00.853Z,0.00
2023-04-11T15:28:33.306Z,0.10
2023-04-11T15:31:01.682Z,0.10
2023-04-11T15:33:31.305Z,0.10
2023-04-11T15:36:00.785Z,0.10
2023-04-11T15:38:29.119Z,0.10
2023-04-11T15:40:59.478Z,0.00
2023-04-11T15:43:27.436Z,0.10
2023-04-11T15:45:55.070Z,0.00
2023-04-11T15:48:22.547Z,0.10
2023-04-11T15:50:51.010Z,0.00
2023-04-11T15:53:18.454Z,0.10
2023-04-11T15:55:47.469Z,0.00
2023-04-11T15:58:15.076Z,0.00
2023-04-11T16:00:43.975Z,0.17
2023-04-11T16:03:11.376Z,0.10
2023-04-11T16:05:42.861Z,0.20
2023-04-11T16:08:11.038Z,0.30
2023-04-11T16:10:38.459Z,0.30
2023-04-11T16:13:05.919Z,0.10
2023-04-11T16:15:33.321Z,0.00
2023-04-11T16:18:00.910Z,0.00
2023-04-11T16:20:28.333Z,0.10
2023-04-11T16:22:55.996Z,0.10
2023-04-11T16:25:23.473Z,0.10
2023-04-11T16:27:51.557Z,0.00
2023-04-11T16:30:19.182Z,0.00
2023-04-11T16:32:46.998Z,0.10
2023-04-11T16:35:14.020Z,0.10
2023-04-11T16:37:41.387Z,0.10
2023-04-11T16:40:12.469Z,0.10
2023-04-11T16:42:40.541Z,0.10
2023-04-11T16:45:09.866Z,0.20
2023-04-11T16:47:38.080Z,0.10
2023-04-11T16:50:06.012Z,0.40
2023-04-11T16:52:33.898Z,0.52
2023-04-11T16:55:03.177Z,0.80
2023-04-11T16:57:33.786Z,0.60
2023-04-11T17:00:11.732Z,1.23
2023-04-11T17:02:40.481Z,0.70
2023-04-11T17:05:09.879Z,1.55
2023-04-11T17:07:38.057Z,0.50
2023-04-11T17:10:07.186Z,0.00
2023-04-11T17:12:38.258Z,0.00
2023-04-11T17:15:09.210Z,0.00
2023-04-11T17:17:38.219Z,0.00
2023-04-11T17:20:09.956Z,0.10
2023-04-11T17:22:39.706Z,0.00
2023-04-11T17:25:07.386Z,0.00
2023-04-11T17:27:34.997Z,0.10
2023-04-11T17:30:02.271Z,0.00
2023-04-11T17:32:29.468Z,0.00
2023-04-11T17:34:56.529Z,0.00
2023-04-11T17:37:24.119Z,0.10
2023-04-11T17:39:51.808Z,0.00
2023-04-11T17:42:19.986Z,0.10
2023-04-11T17:44:47.037Z,0.00
2023-04-11T17:47:13.999Z,0.00
2023-04-11T17:49:41.007Z,0.10
2023-04-11T17:52:08.991Z,0.00
2023-04-11T17:54:36.484Z,0.10
2023-04-11T17:57:03.825Z,0.10
2023-04-11T17:59:31.656Z,0.00
2023-04-11T18:01:59.517Z,0.20
2023-04-11T18:04:29.091Z,0.28
2023-04-11T18:06:58.158Z,0.20
2023-04-11T18:09:28.149Z,0.10
2023-04-11T18:11:55.186Z,0.10
2023-04-11T18:14:23.185Z,0.10
2023-04-11T18:16:50.902Z,0.10
2023-04-11T18:19:18.337Z,0.10
2023-04-11T18:21:45.773Z,0.10
2023-04-11T18:24:12.866Z,0.10
2023-04-11T18:26:40.243Z,0.10
2023-04-11T18:29:07.941Z,0.10
2023-04-11T18:31:35.678Z,0.10
2023-04-11T18:34:03.911Z,0.30
2023-04-11T18:36:33.323Z,0.10
2023-04-11T18:39:01.029Z,0.80
2023-04-11T18:41:28.039Z,0.30
2023-04-11T18:43:55.925Z,0.10
2023-04-11T18:46:23.374Z,0.10
2023-04-11T18:48:50.501Z,0.10
2023-04-11T18:51:17.882Z,0.10
2023-04-11T18:53:45.128Z,0.13
2023-04-11T18:56:12.097Z,0.10
2023-04-11T18:58:45.738Z,0.10
2023-04-11T19:01:17.003Z,0.20
2023-04-11T19:03:45.784Z,0.10
2023-04-11T19:06:13.652Z,0.10
2023-04-11T19:08:41.662Z,0.10
2023-04-11T19:11:08.704Z,0.10
2023-04-11T19:13:36.109Z,0.10
2023-04-11T19:16:04.049Z,0.10
2023-04-11T19:18:31.713Z,0.10
2023-04-11T19:20:59.299Z,0.30
2023-04-11T19:23:27.141Z,0.10
2023-04-11T19:25:55.108Z,0.10
2023-04-11T19:28:22.658Z,0.10
2023-04-11T19:30:50.582Z,0.10
2023-04-11T19:33:19.078Z,0.10
2023-04-11T19:35:46.554Z,0.10
2023-04-11T19:38:13.977Z,0.10
2023-04-11T19:40:41.375Z,0.35
2023-04-11T19:43:09.234Z,0.10
2023-04-11T19:45:36.819Z,0.10
2023-04-11T19:48:04.466Z,0.10
2023-04-11T19:50:32.122Z,0.10
2023-04-11T19:53:01.521Z,0.10
2023-04-11T19:55:29.292Z,0.10
2023-04-11T19:57:56.710Z,0.10
2023-04-11T20:00:25.419Z,0.10
2023-04-11T20:02:53.894Z,0.10
2023-04-11T20:05:22.225Z,0.10
2023-04-11T20:07:49.681Z,0.30
2023-04-11T20:10:17.744Z,0.10
2023-04-11T20:12:45.249Z,0.10
2023-04-11T20:15:12.665Z,0.10
2023-04-11T20:17:40.357Z,0.10
2023-04-11T20:20:09.030Z,0.10
2023-04-11T20:22:38.451Z,0.10
2023-04-11T20:25:08.072Z,0.10
2023-04-11T20:27:35.663Z,0.10
2023-04-11T20:30:10.642Z,0.10
2023-04-11T20:32:38.677Z,0.10
2023-04-11T20:35:08.716Z,0.10
2023-04-11T20:37:36.370Z,0.10
2023-04-11T20:40:09.948Z,0.10
2023-04-11T20:42:46.038Z,0.10
2023-04-11T20:45:20.677Z,0.45
2023-04-11T20:47:50.152Z,0.10
2023-04-11T20:50:19.231Z,0.10
2023-04-11T20:52:50.643Z,0.10
2023-04-11T20:55:18.291Z,0.10
2023-04-11T20:57:45.880Z,0.10
2023-04-11T21:00:20.416Z,0.10
2023-04-11T21:02:50.568Z,0.10
2023-04-11T21:05:22.173Z,0.10
2023-04-11T21:07:50.138Z,0.17
2023-04-11T21:10:19.314Z,0.10
2023-04-11T21:12:51.529Z,0.10
2023-04-11T21:15:20.084Z,0.30
2023-04-11T21:17:48.222Z,0.10
2023-04-11T21:20:19.566Z,0.10
2023-04-11T21:22:54.995Z,0.10
2023-04-11T21:25:23.109Z,0.10
2023-04-11T21:27:50.598Z,0.10
2023-04-11T21:30:18.023Z,0.10
2023-04-11T21:32:45.559Z,0.10
2023-04-11T21:35:13.035Z,0.10
2023-04-11T21:37:40.523Z,0.10
2023-04-11T21:40:08.407Z,0.10
2023-04-11T21:42:35.768Z,0.10
2023-04-11T21:45:03.327Z,0.10
2023-04-11T21:47:30.701Z,0.28
2023-04-11T21:49:58.069Z,0.10
2023-04-11T21:52:25.532Z,0.10
2023-04-11T21:54:52.874Z,0.17
2023-04-11T21:57:20.185Z,0.10
2023-04-11T21:59:47.611Z,0.10
2023-04-11T22:02:15.379Z,0.10
2023-04-11T22:05:01.170Z,0.10
2023-04-11T22:07:38.344Z,0.10
2023-04-11T22:10:09.765Z,0.10
2023-04-11T22:12:37.800Z,0.10
2023-04-11T22:15:06.901Z,0.95
2023-04-11T22:17:34.588Z,0.10
2023-04-11T22:20:01.967Z,0.10
2023-04-11T22:22:32.353Z,0.10
2023-04-11T22:25:00.390Z,0.10
2023-04-11T22:27:28.147Z,0.10
2023-04-11T22:29:59.920Z,0.10
2023-04-11T22:32:27.267Z,0.10
2023-04-11T22:34:54.651Z,0.10
2023-04-11T22:37:22.045Z,0.10
2023-04-11T22:39:49.954Z,0.10
2023-04-11T22:42:17.407Z,0.20
2023-04-11T22:44:44.812Z,0.17
2023-04-11T22:47:16.236Z,0.10
2023-04-11T22:49:45.146Z,0.10
2023-04-11T22:52:15.736Z,0.10
2023-04-11T22:54:43.448Z,0.20
2023-04-11T22:57:11.044Z,0.10
2023-04-11T22:59:38.417Z,0.10
2023-04-11T23:02:05.828Z,0.10
2023-04-11T23:04:33.309Z,0.10
2023-04-11T23:07:00.699Z,0.10
2023-04-11T23:09:28.458Z,0.10
2023-04-11T23:11:55.522Z,0.10
2023-04-11T23:14:22.960Z,0.10
2023-04-11T23:16:50.372Z,0.10
2023-04-11T23:19:18.976Z,0.30
2023-04-11T23:21:46.372Z,0.10
2023-04-11T23:24:14.112Z,0.10
2023-04-11T23:26:41.179Z,0.10
2023-04-11T23:29:08.659Z,0.28
2023-04-11T23:31:36.148Z,0.10
2023-04-11T23:34:03.545Z,0.10
2023-04-11T23:36:30.882Z,0.10
2023-04-11T23:38:58.292Z,0.20
2023-04-11T23:41:25.875Z,0.10
2023-04-11T23:43:53.203Z,0.10
2023-04-11T23:46:20.683Z,0.20
2023-04-11T23:48:48.078Z,0.10
2023-04-11T23:51:16.026Z,0.13
2023-04-11T23:53:43.877Z,0.10
2023-04-11T23:56:11.837Z,0.10
2023-04-11T23:58:39.178Z,0.13
